createdAt,value
2023-02-27T00:04:00.740Z,1.35
2023-02-27T00:09:02.277Z,1.03
2023-02-27T00:14:04.094Z,1.00
2023-02-27T00:19:05.577Z,1.30
2023-02-27T00:24:07.462Z,1.27
2023-02-27T00:29:08.939Z,1.13
2023-02-27T00:34:10.339Z,1.42
2023-02-27T00:39:11.762Z,1.35
2023-02-27T00:44:13.244Z,1.50
2023-02-27T00:49:14.780Z,1.75
2023-02-27T00:54:16.187Z,1.83
2023-02-27T00:59:17.737Z,1.50
2023-02-27T01:04:19.962Z,1.67
2023-02-27T01:09:21.469Z,1.30
2023-02-27T01:14:23.048Z,1.70
2023-02-27T01:19:25.315Z,1.60
2023-02-27T01:24:26.854Z,1.40
2023-02-27T01:29:28.299Z,1.90
2023-02-27T01:34:29.774Z,1.55
2023-02-27T01:39:32.819Z,2.17
2023-02-27T01:45:06.070Z,1.63
2023-02-27T01:50:08.830Z,1.33
2023-02-27T01:55:13.218Z,1.45
2023-02-27T02:00:15.315Z,1.90
2023-02-27T02:05:16.871Z,1.88
2023-02-27T02:10:19.508Z,1.40
2023-02-27T02:15:28.521Z,1.73
2023-02-27T02:20:59.450Z,1.60
2023-02-27T02:26:21.133Z,1.57
2023-02-27T02:31:57.001Z,1.50
2023-02-27T02:37:30.995Z,1.77
2023-02-27T02:42:55.458Z,1.92
2023-02-27T02:48:09.086Z,2.08
2023-02-27T02:53:36.697Z,1.90
2023-02-27T02:59:02.792Z,1.77
2023-02-27T03:04:12.404Z,1.40
2023-02-27T03:09:25.104Z,1.35
2023-02-27T03:14:59.195Z,1.60
2023-02-27T03:20:06.868Z,1.33
2023-02-27T03:25:12.465Z,1.63
2023-02-27T03:30:20.995Z,1.92
2023-02-27T03:35:28.263Z,1.58
2023-02-27T03:40:52.631Z,1.77
2023-02-27T03:46:15.974Z,1.83
2023-02-27T03:51:20.350Z,1.50
2023-02-27T03:56:28.183Z,1.67
2023-02-27T04:01:30.706Z,1.80
2023-02-27T04:06:52.746Z,1.58
2023-02-27T04:11:54.275Z,1.80
2023-02-27T04:17:16.016Z,1.70
2023-02-27T04:22:39.692Z,2.17
2023-02-27T04:27:56.759Z,1.88
2023-02-27T04:33:30.283Z,1.52
2023-02-27T04:43:45.444Z,1.85
2023-02-27T04:49:03.859Z,1.90
2023-02-27T04:54:14.280Z,1.77
2023-02-27T04:59:21.063Z,2.55
2023-02-27T05:04:26.725Z,2.50
2023-02-27T05:09:38.446Z,2.08
2023-02-27T05:14:46.164Z,2.10
2023-02-27T05:19:48.228Z,2.40
2023-02-27T05:24:57.297Z,1.92
2023-02-27T05:30:04.793Z,2.15
2023-02-27T05:35:26.815Z,2.28
2023-02-27T05:40:39.362Z,2.17
2023-02-27T05:45:44.461Z,2.03
2023-02-27T05:50:50.603Z,1.92
2023-02-27T05:56:00.230Z,2.05
2023-02-27T06:01:07.714Z,1.88
2023-02-27T06:06:14.671Z,2.00
2023-02-27T06:11:17.753Z,2.55
2023-02-27T06:16:19.237Z,2.67
2023-02-27T06:21:22.114Z,2.47
2023-02-27T06:26:23.951Z,2.67
2023-02-27T06:31:26.150Z,2.20
2023-02-27T06:36:29.968Z,2.70
2023-02-27T06:41:31.675Z,2.13
2023-02-27T06:46:33.181Z,1.92
2023-02-27T06:51:34.629Z,2.30
2023-02-27T06:56:36.043Z,2.67
2023-02-27T07:01:37.568Z,3.08
2023-02-27T07:07:35.270Z,5.50
2023-02-27T07:12:01.530Z,2.80
2023-02-27T07:17:04.547Z,2.87
2023-02-27T07:22:05.996Z,3.00
2023-02-27T07:27:07.473Z,2.60
2023-02-27T07:32:09.071Z,2.35
2023-02-27T07:37:10.575Z,3.10
2023-02-27T07:42:12.224Z,3.42
2023-02-27T07:47:14.690Z,3.08
2023-02-27T07:52:16.090Z,3.67
2023-02-27T07:57:17.507Z,4.03
2023-02-27T08:02:19.092Z,7.90
2023-02-27T08:07:20.515Z,6.72
2023-02-27T08:12:22.219Z,3.88
2023-02-27T08:17:23.622Z,4.60
2023-02-27T08:22:25.143Z,4.63
2023-02-27T08:27:26.534Z,5.15
2023-02-27T08:32:28.011Z,3.38
2023-02-27T08:37:29.422Z,3.30
2023-02-27T08:42:30.883Z,3.08
2023-02-27T08:47:32.332Z,3.00
2023-02-27T08:52:33.819Z,3.35
2023-02-27T08:57:35.342Z,3.40
2023-02-27T09:02:36.945Z,3.30
2023-02-27T09:07:38.428Z,3.90
2023-02-27T09:12:40.454Z,3.60
2023-02-27T09:17:42.367Z,3.05
2023-02-27T09:22:44.052Z,3.60
2023-02-27T09:27:45.498Z,2.70
2023-02-27T09:32:47.058Z,2.83
2023-02-27T09:37:51.629Z,2.80
2023-02-27T09:42:58.007Z,2.88
2023-02-27T09:48:06.415Z,2.40
2023-02-27T09:53:21.841Z,3.03
2023-02-27T09:58:37.917Z,2.28
2023-02-27T10:03:44.980Z,2.75
2023-02-27T10:08:59.660Z,2.85
2023-02-27T10:14:22.939Z,2.75
2023-02-27T10:19:28.850Z,2.63
2023-02-27T10:24:38.033Z,2.40
2023-02-27T10:29:41.492Z,2.40
2023-02-27T10:34:46.728Z,1.95
2023-02-27T10:39:52.987Z,2.28
2023-02-27T10:44:55.079Z,2.50
2023-02-27T10:49:56.669Z,2.35
2023-02-27T10:55:17.482Z,2.63
2023-02-27T11:00:28.226Z,2.50
2023-02-27T11:05:33.201Z,3.33
2023-02-27T11:10:34.740Z,2.78
2023-02-27T11:15:38.047Z,2.80
2023-02-27T11:20:43.418Z,2.90
2023-02-27T11:25:45.147Z,3.90
2023-02-27T11:30:59.600Z,3.65
2023-02-27T11:36:02.704Z,3.85
2023-02-27T11:46:44.522Z,2.87
2023-02-27T11:51:51.158Z,2.88
2023-02-27T11:56:57.579Z,2.80
2023-02-27T12:02:11.044Z,3.20
2023-02-27T12:07:16.466Z,3.22
2023-02-27T12:12:29.474Z,3.10
2023-02-27T12:17:40.701Z,2.90
2023-02-27T12:22:46.871Z,3.08
2023-02-27T12:27:54.409Z,2.80
2023-02-27T12:33:25.407Z,3.00
2023-02-27T12:38:27.062Z,2.50
2023-02-27T12:43:48.839Z,2.83
2023-02-27T12:49:02.300Z,2.55
2023-02-27T12:54:30.124Z,2.63
2023-02-27T12:59:44.166Z,2.70
2023-02-27T13:04:56.591Z,2.33
2023-02-27T13:10:03.383Z,2.47
2023-02-27T13:15:16.018Z,2.40
2023-02-27T13:20:39.210Z,3.00
2023-02-27T13:31:07.421Z,2.50
2023-02-27T13:36:18.732Z,2.40
2023-02-27T13:41:20.092Z,2.42
2023-02-27T13:46:29.942Z,2.10
2023-02-27T13:51:43.237Z,2.80
2023-02-27T13:56:48.696Z,2.22
2023-02-27T14:01:57.215Z,2.25
2023-02-27T14:07:02.143Z,2.33
2023-02-27T14:12:06.621Z,2.17
2023-02-27T14:17:11.940Z,1.75
2023-02-27T14:22:16.444Z,2.22
2023-02-27T14:27:25.488Z,4.10
2023-02-27T14:32:33.191Z,2.13
2023-02-27T14:37:36.252Z,2.78
2023-02-27T14:47:43.061Z,2.50
2023-02-27T14:52:44.514Z,2.03
2023-02-27T14:58:00.361Z,2.60
2023-02-27T15:03:15.895Z,2.80
2023-02-27T15:08:23.673Z,3.10
2023-02-27T15:13:31.531Z,3.45
2023-02-27T15:18:33.370Z,2.95
2023-02-27T15:23:34.929Z,2.30
2023-02-27T15:28:38.720Z,2.20
2023-02-27T15:33:41.083Z,2.47
2023-02-27T15:38:42.492Z,3.13
2023-02-27T15:43:44.740Z,3.60
2023-02-27T15:48:46.364Z,3.43
2023-02-27T15:53:55.850Z,2.75
2023-02-27T15:59:01.129Z,1.40
2023-02-27T16:04:20.599Z,2.13
2023-02-27T16:09:30.251Z,1.63
2023-02-27T16:14:39.103Z,2.53
2023-02-27T16:19:40.562Z,1.30
2023-02-27T16:24:42.720Z,4.00
2023-02-27T16:29:45.588Z,2.03
2023-02-27T16:34:47.111Z,3.20
2023-02-27T16:39:54.787Z,2.22
2023-02-27T16:44:56.236Z,4.10
2023-02-27T16:49:58.121Z,4.80
2023-02-27T16:54:59.545Z,3.70
2023-02-27T17:00:00.971Z,1.80
2023-02-27T17:05:02.937Z,2.03
2023-02-27T17:10:04.895Z,1.58
2023-02-27T17:15:06.797Z,1.55
2023-02-27T17:20:11.186Z,2.08
2023-02-27T17:25:13.818Z,1.85
2023-02-27T17:30:15.615Z,2.40
2023-02-27T17:35:17.191Z,2.88
2023-02-27T17:40:18.812Z,5.75
2023-02-27T17:45:21.145Z,9.35
2023-02-27T17:50:22.610Z,7.30
2023-02-27T17:55:24.171Z,6.07
2023-02-27T18:00:25.704Z,11.10
2023-02-27T18:05:27.141Z,9.55
2023-02-27T18:10:28.581Z,10.88
2023-02-27T18:15:30.070Z,9.52
2023-02-27T18:20:31.554Z,9.75
2023-02-27T18:25:32.971Z,7.50
2023-02-27T18:30:39.030Z,7.45
2023-02-27T18:35:40.547Z,6.40
2023-02-27T18:40:42.716Z,6.25
2023-02-27T18:45:44.160Z,8.77
2023-02-27T18:50:45.589Z,12.32
2023-02-27T18:55:47.084Z,8.80
2023-02-27T19:00:48.572Z,7.13
2023-02-27T19:05:50.227Z,8.73
2023-02-27T19:10:52.432Z,11.43
2023-02-27T19:15:54.355Z,6.78
2023-02-27T19:20:57.393Z,6.45
2023-02-27T19:31:09.259Z,6.95
2023-02-27T19:36:17.587Z,7.85
2023-02-27T19:41:20.385Z,7.35
2023-02-27T19:46:33.764Z,8.00
2023-02-27T19:51:35.284Z,9.05
2023-02-27T19:56:36.764Z,7.57
2023-02-27T20:01:38.957Z,8.70
2023-02-27T20:06:43.823Z,7.82
2023-02-27T20:11:47.573Z,5.65
2023-02-27T20:16:49.089Z,6.38
2023-02-27T20:21:51.986Z,6.68
2023-02-27T20:26:54.106Z,6.00
2023-02-27T20:31:57.221Z,6.30
2023-02-27T20:42:01.847Z,4.93
2023-02-27T20:47:03.545Z,4.85
2023-02-27T20:52:04.972Z,5.72
2023-02-27T20:57:06.623Z,4.57
2023-02-27T21:02:10.009Z,5.10
2023-02-27T21:07:17.623Z,5.35
2023-02-27T21:12:19.075Z,4.93
2023-02-27T21:17:20.534Z,5.32
2023-02-27T21:22:22.046Z,5.43
2023-02-27T21:27:23.798Z,5.85
2023-02-27T21:32:25.400Z,6.10
2023-02-27T21:37:26.923Z,5.72
2023-02-27T21:42:28.394Z,6.55
2023-02-27T21:47:29.947Z,5.57
2023-02-27T21:52:31.467Z,4.55
2023-02-27T21:57:32.911Z,6.68
2023-02-27T22:02:34.647Z,6.40
2023-02-27T22:07:37.299Z,5.53
2023-02-27T22:12:38.842Z,6.07
2023-02-27T22:17:40.430Z,5.38
2023-02-27T22:22:41.849Z,5.20
2023-02-27T22:27:43.318Z,4.80
2023-02-27T22:32:44.746Z,4.38
2023-02-27T22:37:46.157Z,4.85
2023-02-27T22:42:50.702Z,4.88
2023-02-27T22:47:52.162Z,4.68
2023-02-27T22:52:53.566Z,4.20
2023-02-27T22:57:56.999Z,5.10
2023-02-27T23:02:58.394Z,4.93
2023-02-27T23:07:59.972Z,4.82
2023-02-27T23:13:01.378Z,5.68
2023-02-27T23:18:02.805Z,5.10
2023-02-27T23:23:05.806Z,5.85
2023-02-27T23:28:07.803Z,6.03
2023-02-27T23:33:09.222Z,6.60
2023-02-27T23:38:10.649Z,5.70
2023-02-27T23:43:30.848Z,6.20
2023-02-27T23:48:32.318Z,5.00
2023-02-27T23:53:35.338Z,4.68
2023-02-27T23:58:36.769Z,4.65
